Time;durP1;ratioP1;P1;durP2;ratioP2;P2;SDS_P1;SDS_P2;PMS_P1;PMS_P2;Temp;Humidity;BMP_temperature;BMP_pressure;BME280_temperature;BME280_humidity;BME280_pressure;Samples;Min_cycle;Max_cycle;Signal;HPM_P1;HPM_P2
2023/02/17 00:00:04;;;;;;;263.42;241.80;;;;;;;6.93;90.97;101727.22;4990084;28;20117;-72
2023/02/17 00:02:30;;;;;;;254.82;234.07;;;;;;;6.92;91.12;101730.09;4996642;28;20522;-72
2023/02/17 00:04:56;;;;;;;255.40;234.93;;;;;;;6.99;90.90;101733.50;4998784;28;20030;-72
2023/02/17 00:07:22;;;;;;;250.10;229.93;;;;;;;6.98;91.02;101730.03;4983137;28;20042;-72
2023/02/17 00:09:48;;;;;;;249.65;227.82;;;;;;;6.97;90.90;101722.25;4998493;28;20034;-73
2023/02/17 00:12:14;;;;;;;257.60;236.45;;;;;;;6.96;91.12;101720.63;4999503;28;20049;-72
2023/02/17 00:14:40;;;;;;;255.73;234.45;;;;;;;6.96;91.07;101720.63;4999545;28;20076;-72
2023/02/17 00:17:06;;;;;;;246.68;225.07;;;;;;;6.96;91.11;101723.28;4997149;28;20112;-71
2023/02/17 00:19:32;;;;;;;243.85;222.13;;;;;;;7.00;90.91;101711.16;4997499;28;20050;-73
2023/02/17 00:22:00;;;;;;;255.45;234.48;;;;;;;7.00;90.99;101719.16;4995967;28;20038;-72
2023/02/17 00:24:29;;;;;;;245.57;225.75;;;;;;;6.95;91.10;101711.00;4994426;28;20037;-72
2023/02/17 00:26:54;;;;;;;241.82;220.48;;;;;;;6.98;91.07;101714.06;4999777;28;20064;-73
2023/02/17 00:29:20;;;;;;;247.00;227.07;;;;;;;6.94;91.53;101707.53;5004311;28;20495;-71
2023/02/17 00:31:46;;;;;;;236.70;216.45;;;;;;;6.97;91.11;101711.59;4977397;28;20432;-72
2023/02/17 00:34:12;;;;;;;238.98;218.30;;;;;;;6.97;91.13;101706.25;4985210;28;20209;-71
2023/02/17 00:36:38;;;;;;;248.10;228.07;;;;;;;7.00;91.12;101703.97;5002529;28;20137;-71
2023/02/17 00:39:05;;;;;;;237.63;217.13;;;;;;;7.01;91.37;101705.59;4996069;28;20042;-71
2023/02/17 00:41:31;;;;;;;238.98;218.25;;;;;;;7.00;91.16;101705.84;5015305;28;20034;-71
2023/02/17 00:43:58;;;;;;;238.23;217.82;;;;;;;6.99;91.51;101699.69;4984070;28;20124;-72
2023/02/17 00:46:25;;;;;;;249.48;229.15;;;;;;;7.04;91.40;101699.00;4980219;28;20530;-71
2023/02/17 00:48:51;;;;;;;237.07;216.93;;;;;;;7.01;91.37;101699.47;4996767;28;20464;-73
2023/02/17 00:51:18;;;;;;;240.50;219.55;;;;;;;6.98;91.24;101702.59;4998601;28;20045;-73
2023/02/17 00:53:44;;;;;;;247.85;227.65;;;;;;;6.96;90.93;101696.66;4999871;28;20546;-73
2023/02/17 00:56:10;;;;;;;248.40;228.48;;;;;;;6.99;91.19;101696.22;4985181;28;20055;-72
2023/02/17 00:58:36;;;;;;;237.98;217.52;;;;;;;7.06;91.03;101694.28;4999621;28;20558;-72
2023/02/17 01:01:03;;;;;;;243.23;223.80;;;;;;;7.03;91.00;101695.53;4988673;28;20034;-73
2023/02/17 01:03:30;;;;;;;231.75;211.85;;;;;;;7.03;91.08;101694.72;5000121;28;20045;-73
2023/02/17 01:06:03;;;;;;;235.70;215.38;;;;;;;7.03;90.86;101694.72;4983417;28;20546;-73
2023/02/17 01:08:29;;;;;;;;;;;;;;;7.02;91.11;101685.09;5008146;28;20087;-73
2023/02/17 01:10:55;;;;;;;247.73;227.55;;;;;;;7.06;91.02;101692.44;4981579;28;20371;-71
2023/02/17 01:13:21;;;;;;;251.85;231.18;;;;;;;7.02;91.27;101687.78;4980525;28;20040;-73
2023/02/17 01:15:51;;;;;;;245.35;224.90;;;;;;;7.07;91.25;101677.28;5010702;28;20040;-73
2023/02/17 01:18:18;;;;;;;237.43;217.20;;;;;;;7.04;91.36;101669.72;4996634;28;20029;-72
2023/02/17 01:20:44;;;;;;;247.93;227.35;;;;;;;7.04;91.34;101661.72;4990192;28;20903;-73
2023/02/17 01:23:11;;;;;;;239.90;219.30;;;;;;;7.10;91.09;101663.50;4997941;28;20038;-73
2023/02/17 01:25:41;;;;;;;248.07;227.38;;;;;;;7.14;91.38;101653.22;5004348;28;20041;-73
2023/02/17 01:28:07;;;;;;;243.88;223.98;;;;;;;7.15;91.20;101646.84;5003258;28;20410;-73
2023/02/17 01:30:33;;;;;;;248.63;228.45;;;;;;;7.12;91.43;101645.44;4980678;28;20118;-71
2023/02/17 01:32:59;;;;;;;252.52;231.25;;;;;;;7.11;91.62;101646.47;4984991;28;20109;-72
2023/02/17 01:35:25;;;;;;;244.15;222.43;;;;;;;7.14;91.59;101653.22;4996378;28;20462;-72
2023/02/17 01:37:50;;;;;;;239.38;218.40;;;;;;;7.19;91.45;101650.69;5000362;28;20460;-72
2023/02/17 01:40:17;;;;;;;240.60;218.93;;;;;;;7.21;91.48;101646.75;4994824;28;20065;-72
2023/02/17 01:42:43;;;;;;;251.35;230.13;;;;;;;7.24;91.46;101643.63;5009940;28;20037;-72
2023/02/17 01:45:18;;;;;;;248.73;227.90;;;;;;;7.13;91.65;101636.41;5000259;28;20108;-73
2023/02/17 01:47:55;;;;;;;236.48;215.93;;;;;;;7.20;91.61;101637.16;4986638;28;20095;-73
2023/02/17 01:50:24;;;;;;;237.30;216.15;;;;;;;7.22;91.64;101631.59;5004561;28;20033;-71
2023/02/17 01:52:53;;;;;;;239.60;218.55;;;;;;;7.24;91.45;101627.66;5002900;28;20041;-71
2023/02/17 01:55:22;;;;;;;241.57;221.65;;;;;;;7.24;91.22;101616.19;4985604;28;20050;-72
2023/02/17 01:57:50;;;;;;;244.90;224.90;;;;;;;7.28;91.48;101610.19;4996219;28;20038;-72
2023/02/17 02:00:18;;;;;;;245.15;225.23;;;;;;;7.31;91.55;101606.25;4986679;28;20420;-71
2023/02/17 02:02:47;;;;;;;239.50;218.50;;;;;;;7.33;91.34;101599.66;4998017;28;20562;-74
2023/02/17 02:05:14;;;;;;;239.40;218.68;;;;;;;7.37;91.53;101597.34;4984663;28;20265;-72
2023/02/17 02:07:42;;;;;;;249.00;228.05;;;;;;;7.34;91.46;101587.97;5013571;28;20065;-73
2023/02/17 02:10:12;;;;;;;245.07;225.23;;;;;;;7.42;91.17;101588.69;4965422;28;20046;-70
2023/02/17 02:12:40;;;;;;;233.73;213.18;;;;;;;7.30;91.29;101578.78;4986090;28;20034;-72
2023/02/17 02:15:20;;;;;;;232.10;212.23;;;;;;;7.41;91.50;101577.22;4995147;28;20038;-72
2023/02/17 02:18:02;;;;;;;227.20;208.02;;;;;;;7.47;91.31;101570.16;4999239;28;20205;-72
2023/02/17 02:20:40;;;;;;;229.98;210.57;;;;;;;7.47;90.95;101567.50;4998373;28;20042;-73
2023/02/17 02:23:19;;;;;;;235.75;217.43;;;;;;;7.44;91.05;101552.75;4999017;28;20045;-72
2023/02/17 02:25:45;;;;;;;232.27;214.05;;;;;;;7.54;91.36;101553.00;4998114;28;20490;-74
2023/02/17 02:28:34;;;;;;;234.02;216.00;;;;;;;7.48;91.18;101553.94;4998903;28;20041;-73
2023/02/17 02:31:10;;;;;;;235.20;216.70;;;;;;;7.52;91.35;101543.59;4999033;28;20038;-73
2023/02/17 02:33:57;;;;;;;232.20;213.93;;;;;;;7.53;91.27;101539.94;4994859;28;20145;-73
2023/02/17 02:36:31;;;;;;;222.85;204.18;;;;;;;7.53;91.25;101539.94;5015863;28;20050;-71
2023/02/17 02:39:10;;;;;;;220.18;201.82;;;;;;;7.62;91.05;101538.53;4983277;28;20045;-72
2023/02/17 02:41:52;;;;;;;219.82;201.52;;;;;;;7.63;91.24;101530.31;5000110;28;20033;-72
2023/02/17 02:44:19;;;;;;;229.90;211.93;;;;;;;7.62;91.03;101526.03;4982325;28;20095;-73
2023/02/17 02:46:55;;;;;;;227.43;209.57;;;;;;;7.58;90.99;101521.38;4986021;28;20034;-73
2023/02/17 02:49:21;;;;;;;221.43;203.05;;;;;;;7.58;91.34;101521.38;4993224;28;20041;-71
2023/02/17 02:51:55;;;;;;;224.07;205.15;;;;;;;7.58;91.41;101522.19;4996438;28;20042;-72
2023/02/17 02:54:47;;;;;;;231.15;213.38;;;;;;;7.53;91.39;101524.75;4999727;28;20503;-72
2023/02/17 02:57:41;;;;;;;221.90;203.73;;;;;;;7.65;91.14;101522.91;4967118;28;20057;-71
2023/02/17 03:00:23;;;;;;;227.68;210.27;;;;;;;7.68;91.08;101520.81;4980958;28;20875;-72
2023/02/17 03:03:08;;;;;;;225.00;207.80;;;;;;;7.71;91.02;101510.47;4980569;28;20136;-71
2023/02/17 03:05:58;;;;;;;225.68;208.77;;;;;;;7.71;91.13;101504.34;4978453;28;20046;-72
2023/02/17 03:08:50;;;;;;;224.50;207.77;;;;;;;7.71;90.99;101499.81;4966040;28;20064;-72
2023/02/17 03:11:31;;;;;;;217.30;199.50;;;;;;;7.77;91.08;101514.09;4983229;28;20033;-75
2023/02/17 03:14:06;;;;;;;219.05;202.52;;;;;;;7.77;91.23;101511.41;4981163;28;20050;-72
2023/02/17 03:16:33;;;;;;;225.48;208.63;;;;;;;7.77;91.10;101514.09;4998587;28;20064;-71
2023/02/17 03:18:59;;;;;;;210.38;193.50;;;;;;;7.81;90.80;101510.72;4996072;28;20141;-71
2023/02/17 03:21:32;;;;;;;206.85;190.07;;;;;;;7.81;90.76;101500.06;5010666;28;20156;-72
2023/02/17 03:23:58;;;;;;;213.38;197.48;;;;;;;7.82;91.03;101484.88;5005143;28;20037;-71
2023/02/17 03:26:23;;;;;;;216.90;200.82;;;;;;;7.78;91.08;101479.19;4996471;28;20073;-71
2023/02/17 03:28:49;;;;;;;221.85;205.27;;;;;;;7.79;91.02;101480.81;4996332;28;20085;-72
2023/02/17 03:31:15;;;;;;;208.95;192.10;;;;;;;7.82;90.89;101479.53;5001689;28;20046;-71
2023/02/17 03:33:43;;;;;;;215.00;199.00;;;;;;;7.89;90.88;101483.69;5000461;28;20077;-72
2023/02/17 03:36:09;;;;;;;207.13;190.35;;;;;;;7.89;90.79;101475.69;4994955;28;20073;-72
2023/02/17 03:38:34;;;;;;;210.50;193.05;;;;;;;7.86;90.90;101476.19;4983746;28;20073;-73
2023/02/17 03:41:00;;;;;;;203.07;186.82;;;;;;;7.92;90.64;101469.06;4996625;28;20105;-73
2023/02/17 03:43:25;;;;;;;205.00;188.52;;;;;;;7.94;90.72;101477.69;4997076;28;20038;-73
2023/02/17 03:45:51;;;;;;;213.20;197.50;;;;;;;7.86;90.75;101465.50;5000459;28;20041;-72
2023/02/17 03:48:17;;;;;;;203.13;186.80;;;;;;;7.91;90.86;101468.28;4965076;28;20061;-72
2023/02/17 03:50:42;;;;;;;218.73;202.45;;;;;;;7.96;90.74;101480.09;4983881;28;20143;-73
2023/02/17 03:53:10;;;;;;;217.18;201.13;;;;;;;7.94;90.79;101477.69;4984859;28;20038;-73
2023/02/17 03:55:36;;;;;;;206.13;189.43;;;;;;;7.90;90.72;101482.66;4996682;28;20037;-74
2023/02/17 03:58:01;;;;;;;214.98;198.80;;;;;;;7.88;90.83;101468.75;5004091;28;20041;-73
2023/02/17 04:00:27;;;;;;;206.32;189.55;;;;;;;7.92;90.96;101469.91;4998800;28;20049;-70
2023/02/17 04:02:52;;;;;;;206.27;189.70;;;;;;;7.94;91.04;101451.81;4999078;28;20399;-71
2023/02/17 04:05:18;;;;;;;204.70;188.25;;;;;;;7.92;90.75;101464.59;4991404;28;20038;-73
2023/02/17 04:07:44;;;;;;;203.98;187.13;;;;;;;7.83;90.95;101455.28;4998863;28;20819;-73
2023/02/17 04:10:10;;;;;;;204.88;188.25;;;;;;;7.85;91.23;101458.53;4998414;28;20034;-73
2023/02/17 04:12:35;;;;;;;198.77;183.07;;;;;;;7.91;90.98;101440.78;4988283;28;20054;-73
2023/02/17 04:15:01;;;;;;;199.77;183.75;;;;;;;7.92;90.74;101451.25;4985759;28;20050;-71
2023/02/17 04:17:27;;;;;;;201.45;185.32;;;;;;;7.93;91.05;101444.88;4976802;28;20395;-71
2023/02/17 04:19:52;;;;;;;209.85;194.35;;;;;;;7.93;91.29;101439.53;4996820;28;20041;-72
2023/02/17 04:22:18;;;;;;;212.38;196.77;;;;;;;7.93;91.25;101439.53;4996136;28;20033;-71
2023/02/17 04:24:43;;;;;;;200.77;184.77;;;;;;;7.98;90.72;101438.81;4997722;28;20448;-72
2023/02/17 04:27:09;;;;;;;199.40;183.75;;;;;;;7.98;91.05;101436.13;4994777;28;20268;-72
2023/02/17 04:29:34;;;;;;;194.10;178.93;;;;;;;8.01;90.62;101437.53;5010020;28;20030;-71
2023/02/17 04:32:00;;;;;;;207.93;192.70;;;;;;;8.08;90.79;101454.22;4978694;28;20207;-71
2023/02/17 04:34:25;;;;;;;202.65;187.85;;;;;;;8.06;90.63;101448.28;4990539;28;20045;-72
2023/02/17 04:36:51;;;;;;;193.57;178.38;;;;;;;8.09;90.75;101445.19;4994600;28;20113;-72
2023/02/17 04:39:17;;;;;;;196.35;180.88;;;;;;;8.12;90.29;101444.69;4980089;28;20034;-73
2023/02/17 04:41:43;;;;;;;203.73;188.77;;;;;;;8.08;90.65;101443.56;4991237;28;20682;-73
2023/02/17 04:44:08;;;;;;;194.90;179.60;;;;;;;8.01;90.45;101430.34;4992711;28;20614;-72
2023/02/17 04:46:34;;;;;;;205.27;190.30;;;;;;;8.02;90.35;101420.50;4992153;28;20022;-71
2023/02/17 04:49:00;;;;;;;206.73;191.52;;;;;;;8.08;90.27;101427.56;4991578;28;20038;-73
2023/02/17 04:51:25;;;;;;;200.68;184.55;;;;;;;8.16;90.35;101424.50;4990296;28;20464;-72
2023/02/17 04:53:51;;;;;;;195.50;180.02;;;;;;;8.07;90.10;101428.59;4999849;28;20041;-73
2023/02/17 04:56:17;;;;;;;199.23;183.38;;;;;;;8.16;90.05;101424.50;4997330;28;20034;-72
2023/02/17 04:58:43;;;;;;;207.60;192.40;;;;;;;8.13;90.17;101423.13;5000664;28;20523;-71
2023/02/17 05:01:09;;;;;;;208.80;193.50;;;;;;;8.18;90.00;101423.22;4997843;28;20033;-71
2023/02/17 05:03:35;;;;;;;207.55;192.27;;;;;;;8.22;89.77;101415.56;4999435;28;20088;-73
2023/02/17 05:06:00;;;;;;;210.68;195.27;;;;;;;8.21;89.52;101413.94;4998667;28;20550;-72
2023/02/17 05:08:26;;;;;;;211.10;195.68;;;;;;;8.32;89.39;101415.75;4997100;28;20037;-72
2023/02/17 05:10:51;;;;;;;201.40;185.27;;;;;;;8.25;90.32;101408.91;4998760;28;20443;-71
2023/02/17 05:13:18;;;;;;;202.98;188.13;;;;;;;8.27;89.81;101407.66;5002859;28;20034;-73
2023/02/17 05:15:44;;;;;;;213.68;197.70;;;;;;;8.32;89.64;101405.06;4988957;28;20085;-71
2023/02/17 05:18:10;;;;;;;202.70;186.50;;;;;;;8.32;89.64;101405.06;4970182;28;20492;-73
2023/02/17 05:20:36;;;;;;;201.32;185.18;;;;;;;8.24;89.66;101396.63;4991693;28;20034;-72
2023/02/17 05:23:01;;;;;;;213.30;197.27;;;;;;;8.27;89.92;101382.84;5010832;28;20040;-71
2023/02/17 05:25:27;;;;;;;202.98;186.48;;;;;;;8.29;89.48;101378.06;4997474;28;20038;-72
2023/02/17 05:27:53;;;;;;;203.40;186.40;;;;;;;8.30;89.83;101380.47;5005442;28;20123;-72
2023/02/17 05:30:19;;;;;;;210.30;193.20;;;;;;;8.27;89.96;101375.63;5003725;28;20036;-73
2023/02/17 05:32:44;;;;;;;205.90;189.10;;;;;;;8.32;89.67;101370.38;4982120;28;20069;-72
2023/02/17 05:35:10;;;;;;;224.00;206.65;;;;;;;8.38;89.75;101377.44;5008208;28;20038;-71
2023/02/17 05:37:36;;;;;;;220.32;203.23;;;;;;;8.31;89.88;101371.41;4988761;28;20046;-73
2023/02/17 05:40:01;;;;;;;214.88;196.50;;;;;;;8.24;90.18;101367.28;5007167;28;20042;-72
2023/02/17 05:42:27;;;;;;;213.43;195.25;;;;;;;8.19;90.30;101357.31;5006029;28;20039;-73
2023/02/17 05:44:54;;;;;;;226.00;208.07;;;;;;;8.29;90.20;101368.19;4991298;28;20155;-71
2023/02/17 05:47:21;;;;;;;222.95;205.32;;;;;;;8.27;90.31;101356.16;4995413;28;20499;-72
2023/02/17 05:49:47;;;;;;;218.35;199.82;;;;;;;8.30;90.22;101358.31;5005408;28;20038;-71
2023/02/17 05:52:13;;;;;;;225.05;207.35;;;;;;;8.23;90.27;101337.13;5004992;28;20037;-71
2023/02/17 05:54:38;;;;;;;223.85;206.02;;;;;;;8.28;90.26;101334.56;4961850;28;20120;-72
2023/02/17 05:57:04;;;;;;;219.00;200.32;;;;;;;8.32;90.14;101326.88;4997079;28;20117;-71
2023/02/17 05:59:29;;;;;;;216.13;197.80;;;;;;;8.29;89.83;101328.16;5018516;28;20092;-71
2023/02/17 06:01:55;;;;;;;223.23;205.73;;;;;;;8.27;90.12;101338.28;4995835;28;20129;-72
2023/02/17 06:04:21;;;;;;;217.07;198.68;;;;;;;8.28;90.15;101339.88;4997429;28;20042;-73
2023/02/17 06:06:46;;;;;;;225.23;207.30;;;;;;;8.25;90.41;101324.34;5001462;28;20033;-72
2023/02/17 06:09:12;;;;;;;223.60;206.02;;;;;;;8.22;90.10;101332.84;4999494;28;20456;-71
2023/02/17 06:11:37;;;;;;;216.52;198.35;;;;;;;8.25;90.22;101321.69;5003255;28;20046;-71
2023/02/17 06:14:03;;;;;;;215.65;197.40;;;;;;;8.27;90.10;101322.25;5002741;28;20574;-71
2023/02/17 06:16:29;;;;;;;212.65;194.85;;;;;;;8.27;90.05;101338.28;4997340;28;20034;-71
2023/02/17 06:18:55;;;;;;;214.13;195.90;;;;;;;8.21;90.17;101320.56;4986011;28;20041;-72
2023/02/17 06:21:21;;;;;;;219.65;202.63;;;;;;;8.30;89.81;101329.78;4997787;28;20041;-72
2023/02/17 06:23:46;;;;;;;218.43;201.48;;;;;;;8.30;89.45;101316.44;4984277;28;20037;-72
2023/02/17 06:26:13;;;;;;;216.25;199.63;;;;;;;8.34;89.24;101314.91;4995995;28;20076;-71
2023/02/17 06:28:41;;;;;;;212.85;195.25;;;;;;;8.30;89.41;101312.97;4987193;28;20050;-72
2023/02/17 06:31:07;;;;;;;220.75;203.80;;;;;;;8.31;89.51;101296.69;4987188;28;20077;-72
2023/02/17 06:33:32;;;;;;;220.68;203.57;;;;;;;8.28;90.00;101291.06;5006139;28;20138;-73
2023/02/17 06:35:58;;;;;;;218.13;199.90;;;;;;;8.28;89.98;101283.84;4994444;28;20038;-71
2023/02/17 06:38:24;;;;;;;222.43;204.55;;;;;;;8.28;90.02;101281.19;5001698;28;20039;-71
2023/02/17 06:40:49;;;;;;;227.13;208.95;;;;;;;8.22;90.43;101282.16;5000155;28;20033;-72
2023/02/17 06:43:15;;;;;;;218.88;199.77;;;;;;;8.18;90.48;101273.78;5004705;28;20041;-73
2023/02/17 06:45:43;;;;;;;227.32;208.65;;;;;;;8.21;90.53;101267.19;5000800;28;20092;-73
2023/02/17 06:48:08;;;;;;;220.27;200.65;;;;;;;8.28;90.10;101249.16;5002750;28;20032;-73
2023/02/17 06:50:34;;;;;;;227.40;209.18;;;;;;;8.26;90.16;101259.25;4990551;28;20034;-71
2023/02/17 06:53:00;;;;;;;219.10;199.95;;;;;;;8.26;90.25;101253.91;5000710;28;20045;-71
2023/02/17 06:55:26;;;;;;;224.40;204.73;;;;;;;8.20;90.35;101255.72;5002581;28;20038;-74
2023/02/17 06:57:52;;;;;;;233.65;213.95;;;;;;;8.21;90.46;101246.66;5002685;28;20033;-73
2023/02/17 07:00:18;;;;;;;224.27;204.07;;;;;;;8.20;90.43;101249.56;5002419;28;20112;-73
2023/02/17 07:02:44;;;;;;;222.02;202.93;;;;;;;8.27;89.99;101252.09;4998441;28;20496;-72
2023/02/17 07:05:10;;;;;;;232.40;213.45;;;;;;;8.33;90.08;101248.41;5001443;28;20129;-71
2023/02/17 07:07:35;;;;;;;231.82;213.32;;;;;;;8.31;89.79;101245.19;4998154;28;20113;-71
2023/02/17 07:10:02;;;;;;;237.25;218.15;;;;;;;8.33;89.86;101241.25;4999958;28;20040;-72
2023/02/17 07:12:28;;;;;;;228.45;210.05;;;;;;;8.40;89.30;101231.25;5001569;28;20033;-72
2023/02/17 07:14:54;;;;;;;228.55;210.00;;;;;;;8.38;89.24;101232.53;5003518;28;20041;-70
2023/02/17 07:17:20;;;;;;;226.13;206.20;;;;;;;8.36;89.53;101230.09;4997824;28;20045;-71
2023/02/17 07:19:45;;;;;;;217.65;198.75;;;;;;;8.36;89.36;101229.28;4999089;28;20045;-71
2023/02/17 07:22:11;;;;;;;229.52;210.77;;;;;;;8.37;89.60;101221.03;5002971;28;20036;-71
2023/02/17 07:24:36;;;;;;;221.23;202.23;;;;;;;8.37;89.50;101225.56;5003077;28;20042;-71
2023/02/17 07:27:04;;;;;;;230.30;211.63;;;;;;;8.39;89.36;101226.13;5004916;28;20072;-71
2023/02/17 07:29:30;;;;;;;235.70;216.40;;;;;;;8.35;89.43;101224.97;4999731;28;20781;-72
2023/02/17 07:31:55;;;;;;;221.10;201.85;;;;;;;8.34;89.35;101210.84;4989717;28;20045;-71
2023/02/17 07:34:21;;;;;;;230.52;212.00;;;;;;;8.36;89.55;101214.09;5000566;28;20038;-71
2023/02/17 07:36:47;;;;;;;217.85;198.82;;;;;;;8.35;89.55;101223.16;4977342;28;20041;-71
2023/02/17 07:39:13;;;;;;;229.43;210.85;;;;;;;8.35;89.74;101220.47;4986513;28;20038;-71
2023/02/17 07:41:38;;;;;;;229.90;211.20;;;;;;;8.36;89.77;101210.63;4996876;28;20052;-72
2023/02/17 07:44:08;;;;;;;228.27;210.32;;;;;;;8.44;88.91;101205.66;4986516;28;20038;-71
2023/02/17 07:46:35;;;;;;;228.48;210.13;;;;;;;8.52;88.69;101217.00;4983072;28;20507;-71
2023/02/17 07:49:01;;;;;;;228.02;209.82;;;;;;;8.53;88.70;101202.59;4999951;28;20030;-71
2023/02/17 07:51:27;;;;;;;218.77;200.35;;;;;;;8.55;88.43;101200.50;4996659;28;20041;-72
2023/02/17 07:53:53;;;;;;;221.75;203.13;;;;;;;8.55;88.53;101205.84;5005530;28;20051;-72
2023/02/17 07:56:20;;;;;;;218.60;199.82;;;;;;;8.53;88.67;101203.38;4979529;28;20141;-72
2023/02/17 07:58:46;;;;;;;228.68;210.43;;;;;;;8.47;88.77;101197.19;4979586;28;20038;-72
2023/02/17 08:01:18;;;;;;;223.25;203.65;;;;;;;8.59;88.18;101182.91;4998768;28;20045;-72
2023/02/17 08:03:45;;;;;;;225.40;207.77;;;;;;;8.63;88.05;101192.88;4993505;28;20045;-71
2023/02/17 08:06:13;;;;;;;224.23;205.02;;;;;;;8.56;88.71;101196.78;4993089;28;20123;-71
2023/02/17 08:14:07;;;;;;;230.13;211.65;;;;;;;8.58;88.59;101147.41;4998316;28;20440;-72
2023/02/17 08:16:33;;;;;;;218.52;200.10;;;;;;;8.59;88.42;101162.38;4998589;28;20201;-71
2023/02/17 08:18:59;;;;;;;227.40;209.18;;;;;;;8.57;88.64;101153.00;5000775;28;20404;-71
2023/02/17 08:21:26;;;;;;;220.43;201.57;;;;;;;8.57;88.78;101145.00;5001262;28;20124;-71
2023/02/17 08:23:52;;;;;;;213.57;195.48;;;;;;;8.58;88.59;101133.25;5001145;28;20133;-73
2023/02/17 08:26:18;;;;;;;219.38;202.02;;;;;;;8.54;88.78;101140.16;5005002;28;20115;-72
2023/02/17 08:28:44;;;;;;;212.45;194.75;;;;;;;8.55;88.62;101131.09;5001831;28;20037;-72
2023/02/17 08:31:23;;;;;;;214.48;196.65;;;;;;;8.53;88.69;101128.66;5003626;28;20041;-71
2023/02/17 08:33:50;;;;;;;218.00;200.98;;;;;;;8.53;88.78;101111.81;4986228;28;20071;-71
2023/02/17 08:36:15;;;;;;;223.85;206.38;;;;;;;8.59;88.49;101118.84;4985978;28;20056;-72
2023/02/17 08:38:41;;;;;;;219.00;202.30;;;;;;;8.58;88.54;101122.56;4976296;28;20046;-72
2023/02/17 08:41:16;;;;;;;219.18;202.55;;;;;;;8.62;88.19;101111.16;5003436;28;20038;-72
2023/02/17 08:43:42;;;;;;;207.60;190.63;;;;;;;8.62;88.18;101099.69;5003051;28;20106;-71
2023/02/17 08:46:09;;;;;;;207.80;190.55;;;;;;;8.67;87.56;101102.41;4996331;28;20085;-72
2023/02/17 08:48:35;;;;;;;223.07;206.02;;;;;;;8.69;88.08;101092.28;5002727;28;20034;-72
2023/02/17 08:51:02;;;;;;;211.18;193.63;;;;;;;8.66;88.07;101101.59;4999405;28;20060;-74
2023/02/17 08:53:28;;;;;;;223.38;206.10;;;;;;;8.60;88.08;101091.94;4983203;28;20038;-72
2023/02/17 08:55:53;;;;;;;211.10;193.30;;;;;;;8.62;88.41;101097.00;5005202;28;20541;-72
2023/02/17 08:58:19;;;;;;;218.38;201.73;;;;;;;8.62;88.47;101110.34;5004249;28;20038;-73
2023/02/17 09:00:44;;;;;;;211.02;193.00;;;;;;;8.66;88.29;101111.47;5001835;28;20033;-72
2023/02/17 09:03:10;;;;;;;202.32;185.48;;;;;;;8.65;88.46;101116.00;4998550;28;20111;-73
2023/02/17 09:05:36;;;;;;;219.23;202.35;;;;;;;8.61;88.68;101125.56;4999849;28;20053;-72
2023/02/17 09:08:02;;;;;;;207.30;190.18;;;;;;;8.68;88.60;101122.72;5000246;28;20044;-73
2023/02/17 09:10:29;;;;;;;218.35;201.25;;;;;;;8.64;88.80;101125.06;5005885;28;20554;-72
2023/02/17 09:12:55;;;;;;;203.55;186.57;;;;;;;8.67;88.94;101123.75;5007781;28;20034;-71
2023/02/17 09:15:20;;;;;;;206.68;189.25;;;;;;;8.62;89.00;101113.84;4999549;28;20044;-72
2023/02/17 09:17:46;;;;;;;216.43;199.27;;;;;;;8.62;89.02;101099.69;4988719;28;20118;-72
2023/02/17 09:20:11;;;;;;;215.27;198.32;;;;;;;8.63;89.09;101102.09;5003954;28;20034;-72
2023/02/17 09:22:37;;;;;;;212.10;195.68;;;;;;;8.64;88.82;101097.56;4990284;28;20053;-72
2023/02/17 09:25:04;;;;;;;206.10;188.68;;;;;;;8.70;89.11;101107.25;5002039;28;20038;-72
2023/02/17 09:27:30;;;;;;;216.27;199.63;;;;;;;8.71;89.05;101087.50;5003767;28;20045;-72
2023/02/17 09:29:56;;;;;;;214.20;197.63;;;;;;;8.75;88.85;101084.09;4987868;28;20060;-73
2023/02/17 09:32:21;;;;;;;210.30;194.43;;;;;;;8.77;88.36;101081.16;5002670;28;20037;-72
2023/02/17 09:34:51;;;;;;;206.57;189.15;;;;;;;8.68;88.94;101072.00;5000673;28;20807;-72
2023/02/17 09:37:20;;;;;;;205.52;188.43;;;;;;;8.71;88.80;101064.28;5004365;28;20041;-72
2023/02/17 09:39:47;;;;;;;207.80;191.98;;;;;;;8.79;88.40;101054.22;4995710;28;20511;-72
2023/02/17 09:42:22;;;;;;;211.48;195.48;;;;;;;8.81;88.71;101044.91;4997684;28;20037;-72
2023/02/17 09:44:58;;;;;;;200.40;183.90;;;;;;;8.81;88.68;101049.44;5007391;28;20037;-72
2023/02/17 09:47:29;;;;;;;197.70;181.35;;;;;;;8.84;88.66;101044.41;4982538;28;21052;-71
2023/02/17 09:50:09;;;;;;;198.18;181.65;;;;;;;8.87;88.52;101038.53;5016772;28;20034;-73
2023/02/17 09:52:47;;;;;;;200.93;184.43;;;;;;;8.88;88.68;101050.88;5009649;28;20034;-72
2023/02/17 09:55:28;;;;;;;212.43;196.48;;;;;;;8.89;88.37;101028.44;5002933;28;20160;-71
2023/02/17 09:58:12;;;;;;;209.55;193.55;;;;;;;8.90;88.52;101035.38;4989390;28;20069;-71
2023/02/17 10:00:48;;;;;;;211.65;195.60;;;;;;;8.98;88.19;101023.44;4999679;28;20076;-72
2023/02/17 10:03:29;;;;;;;199.60;183.32;;;;;;;8.93;88.42;101037.53;5000694;28;20121;-74
2023/02/17 10:06:12;;;;;;;209.82;194.10;;;;;;;8.96;88.33;101023.69;5000288;28;20038;-72
2023/02/17 10:08:55;;;;;;;216.13;199.65;;;;;;;8.96;88.57;101030.91;5001021;28;20146;-73
2023/02/17 10:11:49;;;;;;;214.07;197.70;;;;;;;8.94;88.83;101033.84;5004608;28;20046;-72
2023/02/17 10:14:23;;;;;;;207.45;191.90;;;;;;;8.98;88.31;101040.28;4994373;28;20231;-73
2023/02/17 10:16:59;;;;;;;210.88;194.95;;;;;;;9.03;88.40;101036.84;5002554;28;20113;-74
2023/02/17 10:19:33;;;;;;;207.80;192.02;;;;;;;9.10;87.97;101026.78;4988393;28;20405;-71
2023/02/17 10:22:14;;;;;;;211.38;195.50;;;;;;;9.07;88.27;101043.28;5004074;28;20040;-73
2023/02/17 10:24:40;;;;;;;209.27;193.43;;;;;;;9.10;88.18;101034.00;4992147;28;20049;-72
2023/02/17 10:27:27;;;;;;;211.57;195.77;;;;;;;9.11;88.40;101048.97;5005216;28;20034;-72
2023/02/17 10:30:19;;;;;;;211.45;195.38;;;;;;;9.16;88.29;101030.31;5007843;28;21675;-72
2023/02/17 10:33:04;;;;;;;214.55;198.25;;;;;;;9.14;88.35;101046.56;4988037;28;20090;-71
2023/02/17 10:35:38;;;;;;;219.52;202.52;;;;;;;9.11;88.64;101043.59;5007811;28;20030;-73
2023/02/17 10:38:32;;;;;;;219.13;201.88;;;;;;;9.12;88.73;101040.69;4985430;28;20053;-74
2023/02/17 10:41:00;;;;;;;206.20;188.30;;;;;;;9.13;88.94;101044.16;5003753;28;20467;-71
2023/02/17 10:43:30;;;;;;;215.88;198.88;;;;;;;9.10;89.05;101058.03;5002530;28;20026;-71
2023/02/17 10:45:58;;;;;;;216.77;199.52;;;;;;;9.07;89.30;101047.84;5008125;28;20044;-72
2023/02/17 10:48:42;;;;;;;210.50;192.00;;;;;;;9.11;89.08;101038.28;5000808;28;20065;-73
2023/02/17 10:51:14;;;;;;;220.52;202.82;;;;;;;9.11;89.08;101043.59;4988685;28;20034;-75
2023/02/17 10:53:43;;;;;;;222.43;204.70;;;;;;;9.14;89.08;101035.88;5003677;28;20057;-72
2023/02/17 10:56:17;;;;;;;213.00;194.05;;;;;;;9.13;89.31;101030.78;4987491;28;20057;-73
2023/02/17 10:59:15;;;;;;;220.70;202.65;;;;;;;9.13;89.51;101015.56;4983394;28;20067;-74
2023/02/17 11:01:42;;;;;;;225.80;207.55;;;;;;;9.20;89.26;100996.66;4997216;28;20101;-73
2023/02/17 11:04:10;;;;;;;209.20;190.80;;;;;;;9.20;89.39;101020.72;5003489;28;20044;-72
2023/02/17 11:06:41;;;;;;;221.60;203.98;;;;;;;9.22;89.14;101018.63;5014967;28;20049;-73
2023/02/17 11:09:19;;;;;;;222.43;204.35;;;;;;;9.17;89.51;101005.19;4999972;28;20065;-73
2023/02/17 11:11:58;;;;;;;222.00;204.23;;;;;;;9.20;89.36;101010.03;4987352;28;20033;-73
2023/02/17 11:14:28;;;;;;;214.02;195.38;;;;;;;9.20;89.45;100999.31;4989224;28;20929;-73